Terminal Aerodrome Forecast
Issued by NWS Denver/Boulder, CO

Home | Current Version | Previous Version | Text Only | Print | Product List | Glossary On
Versions: 1 2 3 4 5 6 7 8 9 10 11 12 13 14 15 16 17 18 19 20 21 22 23 24 25 26 27 28 29 30 31 32 33 34 35 36 37 38 39 40 41 42 43 44 45 46 47 48 49 50
000
FTUS45 KBOU 010806 AAA
TAFDEN
TAF AMD
KDEN 010806Z 0108/0212 15006KT P6SM SCT020 SCT040 BKN120
     FM011000 03005KT 4SM BR VCSH SCT008 OVC012
     FM011600 07007KT P6SM SCT008 BKN018
     FM012000 10006KT P6SM SCT018 BKN030
     FM020200 14006KT P6SM VCSH SCT018 BKN030
      TEMPO 0203/0206 3SM -SN BR OVC018
     FM020600 16009KT 2SM -SN BR OVC015=

USA.gov is the U.S. government's official web portal to all federal, state and local government web resources and services.